Time;durP1;ratioP1;P1;durP2;ratioP2;P2;SDS_P1;SDS_P2;PMS_P1;PMS_P2;Temp;Humidity;BMP_temperature;BMP_pressure;BME280_temperature;BME280_humidity;BME280_pressure;Samples;Min_cycle;Max_cycle;Signal;HPM_P1;HPM_P2
2023/08/20 00:01:28;;;;;;;;;;;;;;;29.36;51.84;101333.75;5113954;27;19915;-83
2023/08/20 00:03:53;;;;;;;;;;;;;;;29.35;51.92;101338.22;5126747;27;19926;-82
2023/08/20 00:06:19;;;;;;;;;;;;;;;29.35;51.68;101334.63;5133578;27;19911;-83
2023/08/20 00:08:45;;;;;;;;;;;;;;;29.35;51.93;101324.75;5114665;27;19945;-83
2023/08/20 00:11:11;;;;;;;;;;;;;;;29.36;51.84;101334.63;5124567;27;19919;-83
2023/08/20 00:13:36;;;;;;;;;;;;;;;29.34;52.33;101327.50;5114803;27;19960;-83
2023/08/20 00:16:03;;;;;;;;;;;;;;;29.34;51.88;101332.88;5113186;28;19912;-83
2023/08/20 00:18:28;;;;;;;;;;;;;;;29.31;50.73;101331.09;5125792;27;19911;-83
2023/08/20 00:20:54;;;;;;;;;;;;;;;29.26;51.89;101322.22;5122169;27;19911;-82
2023/08/20 00:23:19;;;;;;;;;;;;;;;29.34;51.39;101322.09;5126022;27;19924;-83
2023/08/20 00:25:45;;;;;;;;;;;;;;;29.32;51.68;101326.63;5129791;27;19923;-82
2023/08/20 00:28:10;;;;;;;;;;;;;;;29.33;51.10;101326.56;5127581;27;19916;-83
2023/08/20 00:30:36;;;;;;;;;;;;;;;29.33;51.65;101336.47;5113125;28;20285;-82
2023/08/20 00:33:02;;;;;;;;;;;;;;;29.32;51.68;101330.19;5094988;28;19915;-82
2023/08/20 00:35:27;;;;;;;;;;;;;;;29.29;52.18;101340.97;5113063;28;19911;-82
2023/08/20 00:37:52;;;;;;;;;;;;;;;29.29;52.30;101337.41;5112695;28;19916;-82
2023/08/20 00:40:18;;;;;;;;;;;;;;;29.29;52.04;101340.09;5129013;27;20043;-81
2023/08/20 00:42:43;;;;;;;;;;;;;;;29.29;52.30;101343.66;5113193;28;19947;-82
2023/08/20 00:45:09;;;;;;;;;;;;;;;29.27;51.51;101340.13;5124824;27;19915;-84
2023/08/20 00:47:34;;;;;;;;;;;;;;;29.29;51.62;101338.28;5112441;28;19971;-83
2023/08/20 00:50:00;;;;;;;;;;;;;;;29.19;51.37;101340.25;5113375;28;19947;-83
2023/08/20 00:52:25;;;;;;;;;;;;;;;29.25;51.70;101341.94;5117539;27;20345;-82
2023/08/20 00:54:51;;;;;;;;;;;;;;;29.25;51.96;101349.13;5104829;27;20441;-82
2023/08/20 00:57:19;;;;;;;;;;;;;;;29.25;51.88;101335.69;5106501;28;20002;-83
2023/08/20 00:59:45;;;;;;;;;;;;;;;29.25;51.53;101344.63;5116033;27;19968;-83
2023/08/20 01:02:11;;;;;;;;;;;;;;;29.24;51.29;101334.78;5106126;28;19923;-83
2023/08/20 01:04:36;;;;;;;;;;;;;;;29.25;51.65;101339.25;5112860;28;19912;-83
2023/08/20 01:07:08;;;;;;;;;;;;;;;29.19;51.50;101334.88;5126152;27;20002;-83
2023/08/20 01:09:37;;;;;;;;;;;;;;;29.17;51.20;101338.50;5112327;28;19912;-84
2023/08/20 01:12:03;;;;;;;;;;;;;;;29.14;51.49;101334.03;5114776;27;19998;-83
2023/08/20 01:14:28;;;;;;;;;;;;;;;29.17;51.53;101334.00;5130088;27;20371;-83
2023/08/20 01:16:54;;;;;;;;;;;;;;;29.19;51.18;101332.19;5113295;28;20297;-83
2023/08/20 01:19:20;;;;;;;;;;;;;;;29.17;51.10;101322.34;5132150;28;20399;-84
2023/08/20 01:22:12;;;;;;;;;;;;;;;29.17;51.18;101325.03;5111657;28;19918;-81
2023/08/20 01:24:40;;;;;;;;;;;;;;;29.08;50.92;101300.91;5085240;28;19920;-82
2023/08/20 01:27:18;;;;;;;;;;;;;;;29.18;51.64;101319.63;5125960;28;19915;-83
2023/08/20 01:29:43;;;;;;;;;;;;;;;29.18;51.07;101324.13;5118968;27;20369;-86
2023/08/20 01:32:09;;;;;;;;;;;;;;;29.19;51.18;101317.84;5120342;28;19923;-83
2023/08/20 01:34:34;;;;;;;;;;;;;;;29.18;51.34;101321.44;5129661;28;19911;-83
2023/08/20 01:36:59;;;;;;;;;;;;;;;29.17;51.57;101323.25;5117964;28;19916;-83
2023/08/20 01:39:25;;;;;;;;;;;;;;;29.17;52.02;101325.03;5095927;28;20399;-82
2023/08/20 01:41:50;;;;;;;;;;;;;;;29.15;51.74;101322.38;5118172;28;20424;-82
2023/08/20 01:44:16;;;;;;;;;;;;;;;29.16;52.33;101323.25;5115480;28;19920;-82
2023/08/20 01:46:41;;;;;;;;;;;;;;;29.14;52.06;101323.25;5120896;27;19915;-82
2023/08/20 01:49:06;;;;;;;;;;;;;;;29.14;52.36;101320.56;5115404;28;19916;-82
2023/08/20 01:51:32;;;;;;;;;;;;;;;29.14;52.47;101317.88;5111926;28;20254;-82
2023/08/20 01:53:57;;;;;;;;;;;;;;;29.11;52.10;101314.38;5107269;28;20422;-81
2023/08/20 01:56:23;;;;;;;;;;;;;;;29.13;52.27;101318.81;5117813;28;19923;-82
2023/08/20 01:58:48;;;;;;;;;;;;;;;29.13;52.10;101318.81;5109828;28;19965;-82
2023/08/20 02:01:14;;;;;;;;;;;;;;;29.12;51.85;101317.00;5119735;28;19911;-82
2023/08/20 02:03:39;;;;;;;;;;;;;;;29.11;52.02;101320.63;5122807;27;20366;-82
2023/08/20 02:06:05;;;;;;;;;;;;;;;29.10;51.72;101318.84;5126809;27;20548;-82
2023/08/20 02:08:30;;;;;;;;;;;;;;;29.08;51.89;101320.63;5137230;27;19954;-81
2023/08/20 02:11:00;;;;;;;;;;;;;;;29.07;51.64;101329.63;5127025;27;19937;-81
2023/08/20 02:13:25;;;;;;;;;;;;;;;29.06;51.73;101322.44;5124784;27;20350;-82
2023/08/20 02:15:57;;;;;;;;;;;;;;;29.04;51.60;101329.66;5127131;27;19923;-82
2023/08/20 02:18:22;;;;;;;;;;;;;;;29.06;51.84;101335.00;5126263;27;19912;-82
2023/08/20 02:20:48;;;;;;;;;;;;;;;29.04;51.78;101326.94;5126720;27;20376;-81
2023/08/20 02:23:13;;;;;;;;;;;;;;;29.02;51.61;101328.81;5128938;27;20025;-81
2023/08/20 02:25:39;;;;;;;;;;;;;;;29.01;51.56;101332.38;5125985;27;20356;-82
2023/08/20 02:28:04;;;;;;;;;;;;;;;29.01;51.30;101327.88;5116139;28;19912;-82
2023/08/20 02:30:29;;;;;;;;;;;;;;;29.02;51.51;101331.50;5116074;27;19922;-81
2023/08/20 02:32:55;;;;;;;;;;;;;;;29.01;51.46;101329.69;5121643;27;19915;-82
2023/08/20 02:35:20;;;;;;;;;;;;;;;28.99;51.55;101335.09;5124023;27;19949;-82
2023/08/20 02:37:46;;;;;;;;;;;;;;;28.99;51.63;101335.09;5124187;27;20380;-82
2023/08/20 02:40:13;;;;;;;;;;;;;;;28.99;51.39;101335.09;5131994;27;20311;-82
2023/08/20 02:42:38;;;;;;;;;;;;;;;29.01;51.67;101329.69;5126253;27;19986;-83
2023/08/20 02:45:04;;;;;;;;;;;;;;;28.98;51.52;101330.63;5113647;27;20371;-81
2023/08/20 02:47:29;;;;;;;;;;;;;;;28.95;51.47;101327.97;5127992;27;20047;-82
2023/08/20 02:49:55;;;;;;;;;;;;;;;28.96;51.26;101339.63;5119533;27;19916;-82
2023/08/20 02:52:20;;;;;;;;;;;;;;;28.97;51.48;101341.41;5143890;27;20317;-82
2023/08/20 02:54:46;;;;;;;;;;;;;;;28.95;51.58;101341.41;5137382;27;20285;-82
2023/08/20 02:57:11;;;;;;;;;;;;;;;28.97;51.21;101341.41;5127856;27;20368;-82
2023/08/20 02:59:36;;;;;;;;;;;;;;;28.95;51.43;101332.47;5121780;27;20491;-83
2023/08/20 03:02:03;;;;;;;;;;;;;;;28.94;51.46;101338.78;5127554;27;19915;-81
2023/08/20 03:04:28;;;;;;;;;;;;;;;28.92;51.54;101341.47;5143138;27;20005;-83
2023/08/20 03:06:54;;;;;;;;;;;;;;;28.92;51.45;101336.09;5132854;27;20014;-82
2023/08/20 03:09:19;;;;;;;;;;;;;;;28.92;51.55;101333.41;5119001;27;19915;-82
2023/08/20 03:11:45;;;;;;;;;;;;;;;28.92;51.73;101332.53;5133437;27;20376;-83
2023/08/20 03:14:10;;;;;;;;;;;;;;;28.91;51.75;101346.84;5129535;27;20427;-82
2023/08/20 03:16:35;;;;;;;;;;;;;;;28.91;51.86;101336.09;5123322;27;20388;-82
2023/08/20 03:19:02;;;;;;;;;;;;;;;28.90;51.75;101345.97;5138102;27;19926;-83
2023/08/20 03:21:28;;;;;;;;;;;;;;;28.89;51.93;101343.28;5120316;27;20336;-83
2023/08/20 03:23:53;;;;;;;;;;;;;;;28.88;52.09;101339.72;5140549;27;19919;-82
2023/08/20 03:26:18;;;;;;;;;;;;;;;28.88;51.89;101334.34;5140784;27;19923;-82
2023/08/20 03:28:44;;;;;;;;;;;;;;;28.86;52.04;101333.47;5130369;27;19954;-83
2023/08/20 03:31:09;;;;;;;;;;;;;;;28.86;51.88;101335.28;5119133;27;20295;-82
2023/08/20 03:33:35;;;;;;;;;;;;;;;28.85;51.72;101329.03;5107853;27;20374;-82
2023/08/20 03:36:00;;;;;;;;;;;;;;;28.86;51.89;101340.66;5130655;27;20368;-83
2023/08/20 03:38:25;;;;;;;;;;;;;;;28.86;51.97;101327.22;5143083;27;20432;-83
2023/08/20 03:40:51;;;;;;;;;;;;;;;28.85;51.82;101336.19;5132843;27;19954;-82
2023/08/20 03:43:17;;;;;;;;;;;;;;;28.85;51.92;101339.78;5121196;27;19920;-83
2023/08/20 03:45:42;;;;;;;;;;;;;;;28.83;52.08;101337.09;5107215;28;20023;-82
2023/08/20 03:48:07;;;;;;;;;;;;;;;28.82;51.92;101337.13;5112244;27;20402;-82
2023/08/20 03:50:33;;;;;;;;;;;;;;;28.80;52.20;101330.88;5089466;27;19927;-81
2023/08/20 03:52:58;;;;;;;;;;;;;;;28.82;51.86;101329.94;5090807;28;19916;-82
2023/08/20 03:55:24;;;;;;;;;;;;;;;28.79;51.88;101326.41;5083613;28;20416;-82
2023/08/20 03:57:49;;;;;;;;;;;;;;;28.81;52.09;101329.97;5096003;28;20419;-82
2023/08/20 04:00:15;;;;;;;;;;;;;;;28.82;51.68;101320.97;5108092;28;19923;-83
2023/08/20 04:02:40;;;;;;;;;;;;;;;28.82;51.61;101324.56;5088618;28;19920;-82
2023/08/20 04:05:06;;;;;;;;;;;;;;;28.78;51.91;101317.44;5098303;28;19916;-81
2023/08/20 04:07:31;;;;;;;;;;;;;;;28.76;51.98;101321.06;5093214;28;19916;-83
2023/08/20 04:09:57;;;;;;;;;;;;;;;28.77;52.03;101322.84;5073554;28;20317;-83
2023/08/20 04:12:22;;;;;;;;;;;;;;;28.76;52.00;101319.25;5116552;27;19916;-82
2023/08/20 04:14:47;;;;;;;;;;;;;;;28.76;52.09;101321.94;5098292;28;20024;-80
2023/08/20 04:17:13;;;;;;;;;;;;;;;28.76;51.89;101313.00;5092846;28;20442;-80
2023/08/20 04:19:38;;;;;;;;;;;;;;;28.75;51.97;101317.50;5105182;27;20015;-82
2023/08/20 04:22:04;;;;;;;;;;;;;;;28.77;51.81;101321.03;5092534;28;19916;-82
2023/08/20 04:24:29;;;;;;;;;;;;;;;28.75;51.92;101328.25;5094950;28;20393;-81
2023/08/20 04:26:54;;;;;;;;;;;;;;;28.75;51.85;101324.66;5092406;28;19912;-81
2023/08/20 04:29:20;;;;;;;;;;;;;;;28.74;51.80;101333.63;5107724;28;19958;-81
2023/08/20 04:31:45;;;;;;;;;;;;;;;28.73;51.59;101326.50;5101056;28;19955;-82
2023/08/20 04:34:11;;;;;;;;;;;;;;;28.72;51.72;101322.88;5096787;28;20461;-81
2023/08/20 04:36:36;;;;;;;;;;;;;;;28.71;51.53;101321.13;5099461;28;19911;-82
2023/08/20 04:39:02;;;;;;;;;;;;;;;28.71;51.66;101321.13;5078906;28;19923;-82
2023/08/20 04:41:28;;;;;;;;;;;;;;;28.71;51.42;101325.63;5092276;28;19912;-82
2023/08/20 04:43:53;;;;;;;;;;;;;;;28.68;51.75;101320.25;5114620;27;19919;-82
2023/08/20 04:46:18;;;;;;;;;;;;;;;28.69;51.77;101319.38;5103361;28;19912;-83
2023/08/20 04:48:44;;;;;;;;;;;;;;;28.68;51.61;101318.50;5098676;28;20303;-83
2023/08/20 04:51:09;;;;;;;;;;;;;;;28.67;51.88;101319.38;5100733;27;20323;-82
2023/08/20 04:53:35;;;;;;;;;;;;;;;28.68;51.77;101320.25;5097648;28;20554;-81
2023/08/20 04:56:00;;;;;;;;;;;;;;;28.66;52.15;101323.00;5085998;28;20300;-81
2023/08/20 04:58:25;;;;;;;;;;;;;;;28.67;52.01;101314.00;5096129;28;19912;-82
2023/08/20 05:00:51;;;;;;;;;;;;;;;28.68;51.95;101313.13;5092979;28;19923;-83
2023/08/20 05:03:16;;;;;;;;;;;;;;;28.68;51.63;101307.75;5102522;27;19923;-83
2023/08/20 05:05:42;;;;;;;;;;;;;;;28.58;51.61;101304.25;5099969;28;19916;-83
2023/08/20 05:08:07;;;;;;;;;;;;;;;28.65;51.20;101306.88;5099820;28;20286;-82
2023/08/20 05:10:35;;;;;;;;;;;;;;;28.66;51.33;101303.25;5099347;28;20514;-83
2023/08/20 05:13:00;;;;;;;;;;;;;;;28.58;51.55;101314.13;5082544;28;19916;-80
2023/08/20 05:15:26;;;;;;;;;;;;;;;28.59;51.34;101308.72;5119617;27;20060;-82
2023/08/20 05:17:51;;;;;;;;;;;;;;;28.51;51.13;101317.78;5098974;28;19916;-81
2023/08/20 05:20:17;;;;;;;;;;;;;;;28.55;51.05;101311.47;5098867;28;19922;-82
2023/08/20 05:22:42;;;;;;;;;;;;;;;28.55;50.99;101317.72;5105292;28;19920;-82
2023/08/20 05:25:08;;;;;;;;;;;;;;;28.56;51.07;101310.56;5096918;28;19926;-81
2023/08/20 05:27:33;;;;;;;;;;;;;;;28.59;50.83;101311.41;5108224;28;20389;-81
2023/08/20 05:29:59;;;;;;;;;;;;;;;28.61;50.61;101324.81;5108578;28;19920;-83
2023/08/20 05:32:24;;;;;;;;;;;;;;;28.60;50.95;101315.00;5111287;28;19912;-82
2023/08/20 05:34:49;;;;;;;;;;;;;;;28.60;51.04;101318.56;5092036;28;19916;-81
2023/08/20 05:37:15;;;;;;;;;;;;;;;28.61;51.33;101323.03;5102451;28;19922;-80
2023/08/20 05:39:42;;;;;;;;;;;;;;;28.62;51.09;101318.56;5096578;28;20313;-82
2023/08/20 05:42:07;;;;;;;;;;;;;;;28.61;51.39;101317.66;5103323;27;20023;-82
2023/08/20 05:44:32;;;;;;;;;;;;;;;28.61;51.65;101312.28;5135111;27;20006;-82
2023/08/20 05:46:58;;;;;;;;;;;;;;;28.63;51.77;101309.56;5130643;27;20373;-83
2023/08/20 05:49:24;;;;;;;;;;;;;;;28.63;51.96;101304.19;5128374;27;20527;-82
2023/08/20 05:51:49;;;;;;;;;;;;;;;28.66;52.12;101308.63;5112317;27;19915;-80
2023/08/20 05:54:14;;;;;;;;;;;;;;;28.61;52.13;101304.22;5123107;27;20316;-82
2023/08/20 05:56:40;;;;;;;;;;;;;;;28.63;52.41;101299.72;5116271;27;19919;-83
2023/08/20 05:59:05;;;;;;;;;;;;;;;28.63;52.27;101288.06;5120535;27;20403;-83
2023/08/20 06:01:31;;;;;;;;;;;;;;;28.65;52.29;101288.94;5117661;27;20377;-82
2023/08/20 06:03:56;;;;;;;;;;;;;;;28.62;52.30;101295.25;5121151;27;19919;-83
2023/08/20 06:06:22;;;;;;;;;;;;;;;28.60;52.42;101289.00;5121979;27;20006;-82
2023/08/20 06:08:47;;;;;;;;;;;;;;;28.57;52.60;101291.72;5124316;27;20298;-82
2023/08/20 06:11:12;;;;;;;;;;;;;;;28.57;52.52;101286.34;5117335;27;20016;-82
2023/08/20 06:13:38;;;;;;;;;;;;;;;28.54;52.79;101289.06;5119129;27;19922;-82
2023/08/20 06:16:03;;;;;;;;;;;;;;;28.54;52.69;101286.41;5124032;27;19919;-82
2023/08/20 06:18:29;;;;;;;;;;;;;;;28.56;52.69;101268.44;5123877;27;19916;-82
2023/08/20 06:20:54;;;;;;;;;;;;;;;28.58;52.26;101281.88;5104610;27;20518;-83
2023/08/20 06:23:20;;;;;;;;;;;;;;;28.56;52.76;101281.88;5123914;27;20400;-82
2023/08/20 06:25:45;;;;;;;;;;;;;;;28.56;52.83;101283.69;5131797;27;20457;-82
2023/08/20 06:28:11;;;;;;;;;;;;;;;28.51;52.88;101285.53;5105351;27;20901;-83
2023/08/20 06:30:37;;;;;;;;;;;;;;;28.51;52.64;101286.44;5125262;27;19915;-83
2023/08/20 06:33:02;;;;;;;;;;;;;;;28.46;52.66;101288.25;5122394;27;20365;-83
2023/08/20 06:35:27;;;;;;;;;;;;;;;28.46;52.45;101290.06;5122507;27;19926;-84
2023/08/20 06:37:53;;;;;;;;;;;;;;;28.46;52.29;101287.38;5122482;27;19915;-84
2023/08/20 06:40:18;;;;;;;;;;;;;;;28.42;51.93;101292.75;5116375;27;20600;-84
2023/08/20 06:42:45;;;;;;;;;;;;;;;28.46;52.30;101292.72;5128322;27;19924;-85
2023/08/20 06:45:10;;;;;;;;;;;;;;;28.43;52.05;101290.97;5123305;27;20314;-82
2023/08/20 06:47:36;;;;;;;;;;;;;;;28.45;52.30;101288.25;5124169;27;19916;-85
2023/08/20 06:50:02;;;;;;;;;;;;;;;28.42;52.24;101290.06;5122375;27;19920;-85
2023/08/20 06:52:27;;;;;;;;;;;;;;;28.41;52.49;101291.00;5112837;27;20419;-85
2023/08/20 06:54:53;;;;;;;;;;;;;;;28.42;52.56;101287.38;5123043;27;19915;-86
2023/08/20 06:57:19;;;;;;;;;;;;;;;28.42;52.27;101290.06;5107160;27;20381;-83
2023/08/20 06:59:45;;;;;;;;;;;;;;;28.44;52.26;101298.13;5116183;27;19916;-83
2023/08/20 07:02:10;;;;;;;;;;;;;;;28.45;52.58;101291.84;5129354;27;20420;-84
2023/08/20 07:04:36;;;;;;;;;;;;;;;28.40;52.32;101299.06;5130903;27;20433;-82
2023/08/20 07:07:01;;;;;;;;;;;;;;;28.42;52.59;101299.94;5127163;27;19925;-83
2023/08/20 07:09:27;;;;;;;;;;;;;;;28.42;52.37;101295.44;5124336;27;19919;-85
2023/08/20 07:11:53;;;;;;;;;;;;;;;28.41;52.71;101298.16;5130248;27;19915;-83
2023/08/20 07:14:18;;;;;;;;;;;;;;;28.43;52.58;101299.03;5133274;27;19934;-82
2023/08/20 07:16:44;;;;;;;;;;;;;;;28.45;52.50;101296.31;5104679;27;20373;-84
2023/08/20 07:19:09;;;;;;;;;;;;;;;28.43;52.56;101296.34;5122981;27;19916;-84
2023/08/20 07:21:34;;;;;;;;;;;;;;;28.45;52.32;101301.69;5131931;27;19922;-82
2023/08/20 07:24:00;;;;;;;;;;;;;;;28.42;52.51;101297.25;5121717;27;20426;-83
2023/08/20 07:26:26;;;;;;;;;;;;;;;28.45;52.42;101289.16;5131393;27;19949;-83
2023/08/20 07:28:57;;;;;;;;;;;;;;;28.42;52.64;101290.06;5114108;28;19916;-83
2023/08/20 07:31:27;;;;;;;;;;;;;;;28.43;52.50;101285.59;5096205;28;19919;-83
2023/08/20 07:33:52;;;;;;;;;;;;;;;28.43;52.47;101296.34;5138545;27;20001;-84
2023/08/20 07:36:19;;;;;;;;;;;;;;;28.45;52.46;101286.47;5136869;27;20567;-85
2023/08/20 07:38:44;;;;;;;;;;;;;;;28.48;52.35;101285.53;5115395;27;19916;-83
2023/08/20 07:41:10;;;;;;;;;;;;;;;28.46;52.41;101287.38;5114671;27;19981;-84
2023/08/20 07:43:37;;;;;;;;;;;;;;;28.46;52.45;101282.88;5103614;27;19927;-84
2023/08/20 07:46:03;;;;;;;;;;;;;;;28.49;52.54;101281.97;5091966;28;19924;-84
2023/08/20 07:48:28;;;;;;;;;;;;;;;28.56;52.28;101286.38;5103677;28;20419;-83
2023/08/20 07:50:53;;;;;;;;;;;;;;;28.55;52.05;101289.97;5095535;28;20038;-83
2023/08/20 07:53:19;;;;;;;;;;;;;;;28.52;51.96;101284.63;5111079;27;20401;-83
2023/08/20 07:55:44;;;;;;;;;;;;;;;28.53;52.02;101284.63;5106218;28;19987;-81
2023/08/20 07:58:10;;;;;;;;;;;;;;;28.52;52.42;101279.25;5105738;28;20389;-82
2023/08/20 08:00:35;;;;;;;;;;;;;;;28.54;52.27;101272.06;5106758;28;19916;-82
2023/08/20 08:03:01;;;;;;;;;;;;;;;28.56;52.08;101278.31;5092776;28;19916;-83
2023/08/20 08:05:28;;;;;;;;;;;;;;;28.56;52.35;101271.16;5097740;28;19916;-82
2023/08/20 08:07:53;;;;;;;;;;;;;;;28.56;52.28;101276.50;5106268;28;19938;-83
2023/08/20 08:10:19;;;;;;;;;;;;;;;28.59;52.15;101271.09;5100889;28;20401;-83
2023/08/20 08:12:44;;;;;;;;;;;;;;;28.63;52.19;101274.63;5099910;28;19954;-84
2023/08/20 08:15:09;;;;;;;;;;;;;;;28.61;52.21;101271.97;5104757;28;19923;-84
2023/08/20 08:17:35;;;;;;;;;;;;;;;28.65;52.29;101270.13;5105233;28;20603;-84
2023/08/20 08:20:00;;;;;;;;;;;;;;;28.66;51.97;101265.63;5102896;28;19981;-83
2023/08/20 08:22:26;;;;;;;;;;;;;;;28.63;52.03;101263.88;5073914;28;20389;-83
2023/08/20 08:24:51;;;;;;;;;;;;;;;28.62;52.13;101267.50;5104547;28;19915;-79
2023/08/20 08:27:17;;;;;;;;;;;;;;;28.66;52.29;101266.56;5096469;28;20374;-83
2023/08/20 08:29:44;;;;;;;;;;;;;;;28.68;52.12;101262.03;5092387;28;19920;-83
2023/08/20 08:32:09;;;;;;;;;;;;;;;28.67;51.99;101264.75;5110913;28;19920;-83
2023/08/20 08:34:34;;;;;;;;;;;;;;;28.69;52.03;101261.13;5108504;28;20028;-82
2023/08/20 08:37:00;;;;;;;;;;;;;;;28.71;51.95;101267.38;5092201;28;19912;-83
2023/08/20 08:39:25;;;;;;;;;;;;;;;28.70;51.90;101265.59;5090318;28;20333;-82
2023/08/20 08:41:51;;;;;;;;;;;;;;;28.70;51.88;101265.59;5104770;28;19966;-82
2023/08/20 08:44:16;;;;;;;;;;;;;;;28.70;52.05;101262.00;5117596;27;19920;-82
2023/08/20 08:46:42;;;;;;;;;;;;;;;28.70;51.87;101262.91;5130410;27;20380;-81
2023/08/20 08:49:08;;;;;;;;;;;;;;;28.69;51.83;101258.44;5113956;27;19964;-82
2023/08/20 08:51:34;;;;;;;;;;;;;;;28.68;52.11;101253.06;5118877;27;20002;-81
2023/08/20 08:53:59;;;;;;;;;;;;;;;28.70;51.61;101254.84;5130235;27;20025;-83
2023/08/20 08:56:24;;;;;;;;;;;;;;;28.70;51.92;101262.91;5103581;28;19930;-83
2023/08/20 08:58:50;;;;;;;;;;;;;;;28.75;51.38;101263.72;5102851;27;20320;-83
2023/08/20 09:01:16;;;;;;;;;;;;;;;28.78;51.65;101260.09;5128798;27;20384;-82
2023/08/20 09:03:42;;;;;;;;;;;;;;;28.78;51.53;101257.41;5124815;27;20849;-81
2023/08/20 09:06:08;;;;;;;;;;;;;;;28.76;52.02;101252.06;5125527;27;20002;-82
2023/08/20 09:08:33;;;;;;;;;;;;;;;28.77;52.07;101247.59;5129790;27;19975;-81
2023/08/20 09:11:00;;;;;;;;;;;;;;;28.76;52.00;101260.13;5119821;27;20528;-82
2023/08/20 09:13:35;;;;;;;;;;;;;;;28.80;51.69;101244.84;5103364;27;19916;-81
2023/08/20 09:16:10;;;;;;;;;;;;;;;28.79;51.77;101245.78;5121035;27;19921;-81
2023/08/20 09:18:42;;;;;;;;;;;;;;;28.81;51.44;101250.22;5125148;27;20392;-82
2023/08/20 09:21:11;;;;;;;;;;;;;;;28.81;51.11;101246.63;5121076;27;19916;-82
2023/08/20 09:23:36;;;;;;;;;;;;;;;28.81;51.63;101249.31;5118242;28;19919;-82
2023/08/20 09:26:03;;;;;;;;;;;;;;;28.81;51.59;101242.16;5122499;27;20042;-85
2023/08/20 09:28:33;;;;;;;;;;;;;;;28.85;51.85;101244.78;5100610;28;19919;-82
2023/08/20 09:31:01;;;;;;;;;;;;;;;28.86;51.44;101223.25;5103439;28;19919;-83
2023/08/20 09:33:27;;;;;;;;;;;;;;;28.85;51.47;101226.88;5111898;28;19912;-82
2023/08/20 09:35:56;;;;;;;;;;;;;;;28.85;51.88;101234.03;5095852;28;20324;-83
2023/08/20 09:38:21;;;;;;;;;;;;;;;28.86;51.45;101228.63;5113368;28;19930;-82
2023/08/20 09:40:47;;;;;;;;;;;;;;;28.86;51.32;101233.13;5097160;28;19919;-79
2023/08/20 09:43:13;;;;;;;;;;;;;;;28.85;50.96;101229.56;5104788;28;19923;-82
2023/08/20 09:45:38;;;;;;;;;;;;;;;28.87;51.26;101224.13;5124997;28;20323;-84
2023/08/20 09:48:04;;;;;;;;;;;;;;;28.83;50.90;101223.31;5125705;28;19916;-82
2023/08/20 09:50:32;;;;;;;;;;;;;;;28.90;50.79;101224.09;5093788;28;20397;-81
2023/08/20 09:53:03;;;;;;;;;;;;;;;28.82;50.62;101216.16;5121485;27;20448;-81
2023/08/20 09:55:34;;;;;;;;;;;;;;;28.87;51.32;101218.75;5121561;28;20054;-83
2023/08/20 09:58:00;;;;;;;;;;;;;;;28.91;51.11;101228.56;5113285;28;20011;-83
2023/08/20 10:00:25;;;;;;;;;;;;;;;28.98;51.13;101223.06;5092021;28;19947;-81
2023/08/20 10:02:51;;;;;;;;;;;;;;;28.98;51.37;101223.06;5113870;28;19927;-81
2023/08/20 10:05:16;;;;;;;;;;;;;;;28.97;51.54;101229.34;5111716;28;20273;-81
2023/08/20 10:07:42;;;;;;;;;;;;;;;28.97;51.57;101223.09;5110651;28;19959;-81
2023/08/20 10:10:08;;;;;;;;;;;;;;;28.97;51.90;101217.72;5112992;28;20389;-81
2023/08/20 10:12:33;;;;;;;;;;;;;;;28.93;52.15;101215.97;5120859;28;20446;-81
2023/08/20 10:14:59;;;;;;;;;;;;;;;28.89;52.61;101220.50;5110547;28;19912;-81
2023/08/20 10:17:24;;;;;;;;;;;;;;;28.93;52.38;101224.03;5131673;28;19915;-81
2023/08/20 10:19:51;;;;;;;;;;;;;;;28.97;52.89;101225.78;5115423;28;19912;-81
2023/08/20 10:22:17;;;;;;;;;;;;;;;28.97;53.02;101223.97;5118627;28;19915;-82
2023/08/20 10:24:51;;;;;;;;;;;;;;;28.98;53.44;101225.75;5115319;28;19919;-81
2023/08/20 10:27:24;;;;;;;;;;;;;;;28.97;54.75;101218.59;5120676;27;19915;-81
2023/08/20 10:29:49;;;;;;;;;;;;;;;29.00;53.78;101225.75;5130829;27;19921;-81
2023/08/20 10:32:15;;;;;;;;;;;;;;;28.99;53.44;101227.53;5123021;27;20030;-82
2023/08/20 10:34:42;;;;;;;;;;;;;;;28.98;53.55;101231.16;5103213;27;20441;-82
2023/08/20 10:37:13;;;;;;;;;;;;;;;28.92;53.94;101233.03;5132018;27;20015;-79
2023/08/20 10:39:39;;;;;;;;;;;;;;;28.94;54.05;101231.22;5128062;27;20345;-81
2023/08/20 10:42:09;;;;;;;;;;;;;;;28.93;54.16;101230.31;5123412;27;19923;-83
2023/08/20 10:44:53;;;;;;;;;;;;;;;28.90;54.68;101232.16;5118429;27;19919;-81
2023/08/20 10:47:18;;;;;;;;;;;;;;;28.93;54.10;101235.69;5128872;27;19915;-81
2023/08/20 10:49:44;;;;;;;;;;;;;;;28.95;54.42;101230.28;5102159;27;19922;-82
2023/08/20 10:52:09;;;;;;;;;;;;;;;28.97;54.35;101239.22;5119302;27;20407;-82
2023/08/20 10:54:34;;;;;;;;;;;;;;;28.97;53.89;101236.53;5108518;27;19916;-81
2023/08/20 10:57:00;;;;;;;;;;;;;;;29.01;53.64;101235.59;5121273;27;20376;-81
2023/08/20 10:59:26;;;;;;;;;;;;;;;29.05;53.77;101236.44;5116084;27;19916;-82
2023/08/20 11:01:53;;;;;;;;;;;;;;;29.05;53.67;101223.00;5131552;27;19916;-82
2023/08/20 11:04:20;;;;;;;;;;;;;;;29.05;54.15;101231.94;5123797;27;19970;-84
2023/08/20 11:06:46;;;;;;;;;;;;;;;29.09;53.55;101230.97;5117427;27;19922;-81
2023/08/20 11:09:11;;;;;;;;;;;;;;;29.08;53.75;101226.50;5115038;27;20350;-84
2023/08/20 11:11:41;;;;;;;;;;;;;;;29.09;53.75;101222.03;5119133;27;19987;-82
2023/08/20 11:14:07;;;;;;;;;;;;;;;29.12;54.10;101222.88;5117172;27;19938;-83
2023/08/20 11:16:32;;;;;;;;;;;;;;;29.11;53.88;101231.88;5122902;27;19919;-82
2023/08/20 11:18:58;;;;;;;;;;;;;;;29.09;54.04;101225.59;5124050;27;19973;-81
2023/08/20 11:21:23;;;;;;;;;;;;;;;29.11;54.55;101229.19;5125351;27;19930;-81
2023/08/20 11:23:49;;;;;;;;;;;;;;;29.14;nan;101230.94;5121870;27;20408;-83
2023/08/20 11:26:14;;;;;;;;;;;;;;;29.16;53.95;101229.13;5117029;27;20292;-82
2023/08/20 11:28:44;;;;;;;;;;;;;;;29.15;53.92;101228.22;5124883;27;19915;-81
2023/08/20 11:31:15;;;;;;;;;;;;;;;29.22;53.93;101223.63;5094460;28;20361;-82
2023/08/20 11:33:41;;;;;;;;;;;;;;;29.19;54.16;101226.38;5099812;27;20857;-82
2023/08/20 11:36:07;;;;;;;;;;;;;;;29.20;53.99;101220.09;5122145;27;19915;-82
2023/08/20 11:38:32;;;;;;;;;;;;;;;29.23;54.02;101222.72;5115083;27;19926;-83
2023/08/20 11:40:59;;;;;;;;;;;;;;;29.23;53.36;101214.63;5107834;27;19915;-82
2023/08/20 11:43:25;;;;;;;;;;;;;;;29.27;53.01;101223.56;5092804;27;20010;-83
2023/08/20 11:45:50;;;;;;;;;;;;;;;29.32;53.04;101219.88;5090983;28;20046;-83
2023/08/20 11:48:16;;;;;;;;;;;;;;;29.33;52.99;101210.00;5099221;27;20002;-82
2023/08/20 11:50:42;;;;;;;;;;;;;;;29.29;52.85;101216.34;5101217;27;20306;-82
2023/08/20 11:53:08;;;;;;;;;;;;;;;29.34;52.96;101219.88;5094149;27;19959;-82
2023/08/20 11:55:33;;;;;;;;;;;;;;;29.33;52.75;101205.50;5101881;27;19916;-83
2023/08/20 11:57:59;;;;;;;;;;;;;;;29.34;52.37;101211.81;5104516;27;20304;-82
2023/08/20 12:00:28;;;;;;;;;;;;;;;29.32;52.10;101208.25;5105704;27;20305;-82
2023/08/20 12:02:57;;;;;;;;;;;;;;;29.35;51.68;101217.13;5103926;27;19923;-83
2023/08/20 12:05:27;;;;;;;;;;;;;;;29.32;51.24;101216.31;5082998;28;20015;-83
2023/08/20 12:08:02;;;;;;;;;;;;;;;29.34;50.84;101215.38;5085303;27;20366;-82
2023/08/20 12:10:28;;;;;;;;;;;;;;;29.32;50.09;101217.19;5109079;27;19923;-83
2023/08/20 12:12:55;;;;;;;;;;;;;;;29.35;50.08;101195.59;5081512;28;20307;-83
2023/08/20 12:15:20;;;;;;;;;;;;;;;29.31;49.75;101203.75;5101706;28;19916;-82
2023/08/20 12:17:58;;;;;;;;;;;;;;;29.33;50.24;101194.75;5096290;28;19916;-81
2023/08/20 12:20:26;;;;;;;;;;;;;;;29.33;49.81;101200.13;5106241;27;20409;-82
2023/08/20 12:22:51;;;;;;;;;;;;;;;29.30;49.73;101199.31;5098518;28;19951;-82
2023/08/20 12:25:17;;;;;;;;;;;;;;;29.30;49.50;101199.31;5095999;27;19970;-82
2023/08/20 12:27:42;;;;;;;;;;;;;;;29.34;49.78;101214.50;5081205;28;19967;-82
2023/08/20 12:30:08;;;;;;;;;;;;;;;29.33;49.69;101207.31;5107732;28;19968;-83